createdAt,value
2022-09-02T00:01:12.136Z,62.45
2022-09-02T00:03:38.661Z,62.43
2022-09-02T00:06:05.350Z,62.32
2022-09-02T00:08:31.978Z,61.87
2022-09-02T00:11:06.247Z,61.70
2022-09-02T00:13:36.090Z,61.46
2022-09-02T00:16:04.040Z,61.06
2022-09-02T00:18:30.938Z,61.95
2022-09-02T00:20:57.436Z,62.10
2022-09-02T00:23:23.930Z,62.03
2022-09-02T00:25:54.014Z,61.81
2022-09-02T00:28:20.793Z,61.79
2022-09-02T00:30:48.621Z,61.88
2022-09-02T00:33:16.163Z,61.91
2022-09-02T00:35:43.990Z,61.80
2022-09-02T00:38:11.200Z,61.84
2022-09-02T00:40:38.863Z,61.33
2022-09-02T00:43:08.337Z,62.08
2022-09-02T00:45:36.494Z,63.13
2022-09-02T00:48:03.974Z,64.34
2022-09-02T00:50:35.113Z,63.93
2022-09-02T00:53:08.299Z,63.77
2022-09-02T00:55:40.482Z,63.37
2022-09-02T00:58:14.949Z,63.11
2022-09-02T01:00:44.789Z,63.56
2022-09-02T01:03:15.971Z,62.15
2022-09-02T01:05:46.078Z,61.97
2022-09-02T01:08:15.776Z,62.62
2022-09-02T01:10:43.168Z,63.38
2022-09-02T01:13:15.910Z,62.86
2022-09-02T01:15:49.314Z,63.06
2022-09-02T01:18:25.633Z,63.54
2022-09-02T01:20:52.222Z,64.13
2022-09-02T01:23:19.424Z,64.10
2022-09-02T01:25:47.097Z,64.26
2022-09-02T01:28:16.162Z,64.46
2022-09-02T01:30:49.910Z,64.02
2022-09-02T01:33:18.667Z,63.67
2022-09-02T01:35:45.381Z,63.25
2022-09-02T01:38:12.600Z,62.83
2022-09-02T01:40:40.196Z,63.24
2022-09-02T01:43:11.138Z,63.31
2022-09-02T01:45:40.330Z,63.76
2022-09-02T01:48:08.968Z,63.84
2022-09-02T01:50:46.791Z,63.65
2022-09-02T01:53:14.670Z,63.52
2022-09-02T01:55:41.711Z,63.68
2022-09-02T01:58:08.748Z,64.00
2022-09-02T02:05:34.307Z,63.02
2022-09-02T02:08:03.199Z,64.15
2022-09-02T02:10:30.977Z,65.13
2022-09-02T02:13:00.961Z,66.17
2022-09-02T02:17:56.634Z,68.61
2022-09-02T02:20:23.640Z,68.77
2022-09-02T02:22:50.190Z,69.48
2022-09-02T02:25:18.732Z,70.56
2022-09-02T02:27:49.926Z,70.90
2022-09-02T02:30:17.580Z,71.01
2022-09-02T02:32:47.081Z,71.63
2022-09-02T02:35:18.926Z,71.35
2022-09-02T02:37:49.080Z,71.16
2022-09-02T02:40:19.049Z,69.93
2022-09-02T02:42:47.587Z,69.03
2022-09-02T02:45:15.628Z,68.72
2022-09-02T02:47:46.027Z,68.12
2022-09-02T02:50:15.786Z,67.32
2022-09-02T02:52:42.450Z,66.59
2022-09-02T02:55:10.657Z,66.23
2022-09-02T02:57:39.157Z,65.99
2022-09-02T03:00:19.568Z,66.15
2022-09-02T03:02:48.089Z,65.81
2022-09-02T03:05:16.118Z,66.06
2022-09-02T03:07:43.069Z,66.27
2022-09-02T03:10:11.182Z,66.32
2022-09-02T03:12:40.669Z,66.60
2022-09-02T03:15:09.055Z,67.37
2022-09-02T03:17:35.756Z,67.05
2022-09-02T03:20:03.230Z,67.44
2022-09-02T03:22:33.285Z,67.40
2022-09-02T03:25:00.121Z,67.87
2022-09-02T03:27:26.664Z,68.57
2022-09-02T03:29:56.713Z,68.33
2022-09-02T03:32:23.232Z,68.34
2022-09-02T03:34:54.402Z,68.42
2022-09-02T03:37:21.026Z,67.91
2022-09-02T03:39:47.584Z,67.91
2022-09-02T03:42:19.360Z,67.25
2022-09-02T03:44:47.588Z,67.12
2022-09-02T03:47:15.140Z,65.86
2022-09-02T03:49:41.643Z,66.17
2022-09-02T03:52:11.024Z,65.62
2022-09-02T03:54:38.445Z,66.48
2022-09-02T03:57:05.460Z,67.06
2022-09-02T03:59:33.030Z,66.78
2022-09-02T04:02:02.753Z,66.31
2022-09-02T04:04:30.085Z,67.59
2022-09-02T04:06:57.370Z,67.30
2022-09-02T04:09:24.040Z,67.67
2022-09-02T04:11:50.569Z,67.70
2022-09-02T04:14:17.198Z,67.56
2022-09-02T04:16:43.643Z,67.34
2022-09-02T04:19:10.306Z,66.94
2022-09-02T04:21:40.881Z,66.12
2022-09-02T04:24:09.919Z,67.01
2022-09-02T04:26:44.802Z,66.60
2022-09-02T04:29:14.400Z,67.40
2022-09-02T04:31:42.318Z,69.27
2022-09-02T04:34:09.722Z,70.13
2022-09-02T04:36:36.722Z,70.69
2022-09-02T04:39:09.337Z,72.85
2022-09-02T04:41:37.590Z,74.52
2022-09-02T04:44:07.569Z,74.71
2022-09-02T04:46:38.041Z,74.93
2022-09-02T04:49:08.655Z,74.26
2022-09-02T04:51:37.276Z,74.18
2022-09-02T04:54:05.302Z,74.16
2022-09-02T04:56:32.426Z,74.29
2022-09-02T04:59:01.315Z,73.67
2022-09-02T05:01:32.492Z,72.32
2022-09-02T05:04:09.430Z,71.37
2022-09-02T05:06:44.096Z,70.53
2022-09-02T05:09:15.427Z,70.15
2022-09-02T05:11:41.932Z,71.02
2022-09-02T05:14:08.610Z,70.45
2022-09-02T05:16:40.499Z,70.15
2022-09-02T05:19:13.663Z,69.72
2022-09-02T05:21:47.012Z,69.09
2022-09-02T05:24:26.443Z,69.13
2022-09-02T05:26:54.807Z,68.93
2022-09-02T05:29:22.269Z,69.19
2022-09-02T05:31:49.908Z,68.13
2022-09-02T05:34:17.428Z,68.13
2022-09-02T05:36:44.146Z,67.32
2022-09-02T05:39:10.811Z,66.98
2022-09-02T05:41:38.531Z,66.52
2022-09-02T05:44:07.294Z,66.93
2022-09-02T05:46:36.013Z,64.38
2022-09-02T05:49:08.812Z,62.99
2022-09-02T05:51:44.916Z,60.17
2022-09-02T05:54:15.936Z,58.45
2022-09-02T05:56:45.232Z,56.69
2022-09-02T05:59:13.902Z,55.34
2022-09-02T06:01:40.804Z,53.68
2022-09-02T06:04:07.528Z,51.86
2022-09-02T06:06:38.422Z,50.74
2022-09-02T06:09:09.346Z,49.89
2022-09-02T06:11:45.276Z,49.08
2022-09-02T06:14:20.695Z,48.01
2022-09-02T06:16:50.318Z,47.07
2022-09-02T06:19:25.805Z,46.67
2022-09-02T06:21:54.497Z,45.63
2022-09-02T06:24:24.357Z,45.40
2022-09-02T06:26:54.539Z,44.31
2022-09-02T06:29:26.051Z,44.50
2022-09-02T06:31:53.865Z,43.90
2022-09-02T06:34:23.883Z,42.84
2022-09-02T06:36:50.728Z,43.21
2022-09-02T06:39:21.848Z,44.07
2022-09-02T06:41:49.858Z,44.28
2022-09-02T06:44:21.552Z,45.11
2022-09-02T06:46:55.037Z,45.17
2022-09-02T06:49:22.987Z,44.92
2022-09-02T06:51:51.524Z,46.32
2022-09-02T06:54:21.564Z,45.50
2022-09-02T06:56:52.935Z,45.49
2022-09-02T06:59:23.452Z,46.85
2022-09-02T07:01:56.369Z,46.23
2022-09-02T07:04:42.208Z,45.31
2022-09-02T07:07:12.322Z,45.07
2022-09-02T07:09:51.913Z,45.22
2022-09-02T07:12:19.607Z,44.03
2022-09-02T07:14:55.760Z,42.71
2022-09-02T07:17:27.941Z,43.60
2022-09-02T07:20:00.603Z,44.32
2022-09-02T07:22:31.602Z,43.27
2022-09-02T07:25:00.636Z,43.52
2022-09-02T07:27:27.346Z,42.61
2022-09-02T07:29:56.295Z,44.04
2022-09-02T07:32:23.434Z,43.65
2022-09-02T07:34:50.036Z,44.30
2022-09-02T07:37:17.169Z,44.44
2022-09-02T07:39:45.169Z,43.92
2022-09-02T07:42:14.522Z,44.24
2022-09-02T07:47:09.196Z,43.12
2022-09-02T07:52:25.694Z,43.48
2022-09-02T07:54:54.360Z,43.10
2022-09-02T07:57:21.080Z,41.76
2022-09-02T07:59:48.373Z,41.95
2022-09-02T08:02:16.880Z,43.23
2022-09-02T08:04:44.558Z,42.04
2022-09-02T08:07:11.820Z,42.31
2022-09-02T08:09:38.564Z,42.06
2022-09-02T08:12:05.219Z,41.99
2022-09-02T08:14:31.701Z,41.79
2022-09-02T08:16:58.427Z,42.33
2022-09-02T08:19:27.288Z,41.62
2022-09-02T08:21:53.811Z,41.12
2022-09-02T08:24:20.230Z,40.15
2022-09-02T08:26:47.350Z,39.26
2022-09-02T08:29:13.762Z,38.83
2022-09-02T08:31:40.257Z,38.92
2022-09-02T08:34:06.852Z,39.42
2022-09-02T08:36:33.306Z,39.93
2022-09-02T08:39:03.734Z,40.72
2022-09-02T08:41:51.448Z,40.53
2022-09-02T08:44:22.642Z,40.56
2022-09-02T08:46:53.815Z,39.54
2022-09-02T08:49:35.201Z,40.84
2022-09-02T08:52:04.685Z,39.65
2022-09-02T08:54:44.448Z,40.02
2022-09-02T08:57:11.990Z,39.74
2022-09-02T09:02:21.696Z,38.31
2022-09-02T09:05:12.042Z,38.87
2022-09-02T09:07:59.742Z,37.13
2022-09-02T09:10:56.903Z,38.13
2022-09-02T09:13:56.186Z,38.48
2022-09-02T09:16:35.027Z,37.42
2022-09-02T09:19:16.418Z,36.94
2022-09-02T09:21:44.352Z,36.07
2022-09-02T09:24:28.979Z,35.94
2022-09-02T09:26:55.984Z,35.68
2022-09-02T09:29:22.582Z,35.94
2022-09-02T09:31:57.767Z,36.43
2022-09-02T09:34:24.371Z,36.99
2022-09-02T09:36:53.811Z,37.30
2022-09-02T09:39:29.975Z,37.13
2022-09-02T09:42:11.636Z,37.43
2022-09-02T09:44:48.042Z,37.49
2022-09-02T09:47:20.641Z,36.66
2022-09-02T09:50:14.519Z,36.71
2022-09-02T09:52:40.974Z,36.48
2022-09-02T09:55:24.586Z,35.95
2022-09-02T09:57:53.502Z,37.14
2022-09-02T10:00:32.304Z,36.99
2022-09-02T10:03:05.235Z,37.36
2022-09-02T10:05:37.134Z,37.91
2022-09-02T10:08:17.613Z,36.79
2022-09-02T10:11:02.726Z,36.72
2022-09-02T10:13:35.467Z,35.64
2022-09-02T10:16:25.505Z,35.25
2022-09-02T10:19:22.265Z,34.59
2022-09-02T10:22:09.785Z,34.55
2022-09-02T10:25:20.477Z,34.59
2022-09-02T10:27:58.921Z,33.74
2022-09-02T10:30:26.925Z,33.42
2022-09-02T10:33:13.097Z,32.56
2022-09-02T10:35:45.493Z,33.38
2022-09-02T10:38:34.710Z,33.39
2022-09-02T10:41:32.500Z,34.29
2022-09-02T10:44:01.817Z,33.43
2022-09-02T10:46:39.020Z,34.14
2022-09-02T10:49:19.666Z,33.15
2022-09-02T10:52:28.112Z,34.23
2022-09-02T10:55:03.422Z,34.72
2022-09-02T10:57:45.435Z,33.37
2022-09-02T11:00:16.961Z,33.75
2022-09-02T11:03:12.456Z,32.86
2022-09-02T11:05:45.770Z,34.36
2022-09-02T11:08:41.445Z,33.26
2022-09-02T11:11:21.169Z,33.29
2022-09-02T11:14:02.985Z,33.06
2022-09-02T11:16:41.820Z,32.80
2022-09-02T11:19:39.486Z,32.98
2022-09-02T11:22:11.984Z,33.19
2022-09-02T11:24:52.302Z,32.55
2022-09-02T11:27:47.872Z,32.55
2022-09-02T11:30:21.400Z,32.03
2022-09-02T11:33:12.760Z,31.33
2022-09-02T11:35:39.638Z,32.50
2022-09-02T11:38:15.080Z,32.76
2022-09-02T11:44:29.479Z,32.68
2022-09-02T11:47:25.826Z,32.22
2022-09-02T11:50:15.114Z,32.16
2022-09-02T11:52:59.711Z,32.72
2022-09-02T11:55:34.047Z,32.85
2022-09-02T11:58:01.350Z,31.98
2022-09-02T12:00:31.648Z,32.32
2022-09-02T12:03:28.542Z,32.61
2022-09-02T12:06:13.543Z,32.73
2022-09-02T12:08:40.645Z,32.77
2022-09-02T12:11:07.808Z,33.14
2022-09-02T12:13:43.760Z,32.72
2022-09-02T12:16:16.427Z,32.47
2022-09-02T12:18:45.102Z,32.61
2022-09-02T12:21:16.327Z,32.31
2022-09-02T12:23:49.530Z,32.48
2022-09-02T12:26:17.854Z,32.59
2022-09-02T12:28:48.880Z,32.16
2022-09-02T12:31:36.559Z,32.17
2022-09-02T12:34:24.851Z,31.74
2022-09-02T12:36:55.608Z,31.18
2022-09-02T12:39:25.439Z,31.71
2022-09-02T12:42:06.984Z,32.22
2022-09-02T12:44:44.386Z,32.57
2022-09-02T12:47:33.664Z,32.69
2022-09-02T12:50:32.412Z,32.13
2022-09-02T12:53:32.344Z,32.62
2022-09-02T12:56:21.861Z,32.69
2022-09-02T12:58:51.931Z,33.25
2022-09-02T13:01:37.364Z,33.78
2022-09-02T13:04:16.379Z,33.24
2022-09-02T13:06:49.476Z,34.43
2022-09-02T13:09:39.094Z,33.25
2022-09-02T13:12:31.565Z,33.61
2022-09-02T13:15:23.395Z,32.96
2022-09-02T13:18:24.318Z,33.43
2022-09-02T13:21:09.386Z,32.34
2022-09-02T13:24:12.850Z,32.88
2022-09-02T13:27:01.065Z,32.64
2022-09-02T13:30:07.331Z,32.29
2022-09-02T13:32:34.943Z,32.91
2022-09-02T13:35:05.512Z,32.59
2022-09-02T13:37:40.708Z,32.82
2022-09-02T13:40:27.144Z,33.61
2022-09-02T13:43:01.570Z,33.40
2022-09-02T13:45:37.207Z,33.65
2022-09-02T13:48:10.242Z,32.85
2022-09-02T13:50:42.125Z,32.96
2022-09-02T13:56:02.477Z,33.23
2022-09-02T13:58:28.813Z,33.35
2022-09-02T14:01:01.673Z,33.15
2022-09-02T14:03:33.018Z,33.56
2022-09-02T14:06:01.285Z,33.53
2022-09-02T14:08:30.566Z,33.09
2022-09-02T14:10:58.344Z,32.46
2022-09-02T14:13:25.243Z,33.11
2022-09-02T14:15:51.749Z,32.81
2022-09-02T14:18:21.492Z,32.49
2022-09-02T14:21:09.590Z,32.91
2022-09-02T14:23:46.301Z,32.97
2022-09-02T14:26:24.076Z,32.58
2022-09-02T14:28:51.869Z,32.60
2022-09-02T14:31:30.577Z,32.02
2022-09-02T14:33:57.896Z,32.08
2022-09-02T14:36:24.319Z,31.77
2022-09-02T14:38:57.216Z,32.63
2022-09-02T14:41:28.175Z,32.08
2022-09-02T14:44:00.249Z,32.27
2022-09-02T14:46:30.303Z,31.80
2022-09-02T14:49:04.411Z,31.69
2022-09-02T14:51:36.473Z,32.04
2022-09-02T14:54:03.996Z,32.20
2022-09-02T14:56:48.501Z,31.91
2022-09-02T14:59:15.002Z,31.33
2022-09-02T15:01:43.961Z,31.29
2022-09-02T15:04:10.686Z,31.03
2022-09-02T15:06:42.101Z,30.88
2022-09-02T15:09:09.194Z,31.32
2022-09-02T15:11:38.549Z,31.16
2022-09-02T15:14:05.750Z,31.50
2022-09-02T15:16:33.034Z,31.42
2022-09-02T15:19:00.050Z,31.61
2022-09-02T15:21:26.592Z,31.67
2022-09-02T15:23:52.994Z,31.50
2022-09-02T15:26:19.444Z,31.22
2022-09-02T15:28:45.899Z,31.40
2022-09-02T15:31:12.828Z,31.17
2022-09-02T15:33:41.310Z,30.99
2022-09-02T15:36:13.301Z,31.17
2022-09-02T15:38:43.101Z,31.26
2022-09-02T15:41:18.798Z,30.92
2022-09-02T15:43:47.478Z,31.15
2022-09-02T15:46:17.646Z,31.01
2022-09-02T15:48:44.370Z,30.70
2022-09-02T15:51:12.903Z,30.54
2022-09-02T15:53:39.755Z,30.65
2022-09-02T15:56:15.820Z,30.56
2022-09-02T15:58:42.310Z,30.68
2022-09-02T16:01:09.138Z,30.72
2022-09-02T16:03:36.527Z,30.65
2022-09-02T16:06:05.516Z,31.22
2022-09-02T16:08:33.365Z,30.83
2022-09-02T16:11:04.639Z,31.28
2022-09-02T16:13:31.344Z,31.46
2022-09-02T16:16:05.759Z,31.41
2022-09-02T16:18:33.947Z,31.00
2022-09-02T16:21:00.560Z,30.91
2022-09-02T16:23:27.595Z,30.82
2022-09-02T16:26:27.889Z,30.73
2022-09-02T16:29:03.993Z,31.03
2022-09-02T16:31:32.558Z,31.02
2022-09-02T16:34:10.908Z,30.66
2022-09-02T16:36:43.301Z,31.05
2022-09-02T16:39:12.010Z,30.84
2022-09-02T16:41:49.825Z,30.93
2022-09-02T16:44:18.454Z,31.14
2022-09-02T16:46:46.550Z,31.38
2022-09-02T16:49:18.593Z,31.29
2022-09-02T16:51:46.226Z,31.46
2022-09-02T16:54:17.901Z,31.29
2022-09-02T16:56:48.614Z,31.55
2022-09-02T16:59:15.140Z,31.42
2022-09-02T17:01:41.590Z,31.18
2022-09-02T17:04:08.999Z,31.57
2022-09-02T17:06:41.277Z,31.83
2022-09-02T17:09:08.951Z,31.82
2022-09-02T17:11:39.569Z,31.65
2022-09-02T17:14:05.973Z,31.87
2022-09-02T17:16:35.723Z,31.95
2022-09-02T17:19:02.641Z,31.54
2022-09-02T17:21:42.338Z,32.64
2022-09-02T17:24:11.574Z,31.99
2022-09-02T17:26:40.002Z,32.13
2022-09-02T17:29:17.226Z,32.08
2022-09-02T17:31:52.732Z,32.24
2022-09-02T17:34:19.283Z,32.39
2022-09-02T17:36:45.712Z,32.26
2022-09-02T17:39:14.672Z,32.36
2022-09-02T17:41:59.662Z,32.18
2022-09-02T17:44:35.296Z,32.64
2022-09-02T17:47:14.120Z,32.55
2022-09-02T17:49:46.557Z,32.84
2022-09-02T17:52:16.438Z,32.63
2022-09-02T17:54:43.280Z,32.54
2022-09-02T17:57:19.079Z,32.97
2022-09-02T18:00:12.406Z,32.55
2022-09-02T18:02:42.176Z,32.91
2022-09-02T18:05:16.216Z,32.94
2022-09-02T18:08:01.153Z,33.22
2022-09-02T18:10:32.772Z,33.42
2022-09-02T18:13:04.117Z,33.68
2022-09-02T18:15:43.271Z,34.70
2022-09-02T18:18:11.856Z,34.83
2022-09-02T18:20:43.905Z,35.05
2022-09-02T18:23:42.932Z,35.49
2022-09-02T18:26:35.657Z,35.70
2022-09-02T18:29:25.397Z,35.86
2022-09-02T18:32:28.829Z,35.93
2022-09-02T18:35:07.682Z,36.46
2022-09-02T18:37:49.286Z,36.63
2022-09-02T18:40:21.717Z,36.64
2022-09-02T18:43:12.913Z,36.79
2022-09-02T18:45:54.644Z,36.82
2022-09-02T18:48:33.000Z,36.96
2022-09-02T18:51:17.826Z,37.52
2022-09-02T18:53:54.086Z,37.54
2022-09-02T18:56:28.759Z,38.10
2022-09-02T18:59:02.121Z,37.95
2022-09-02T19:01:30.782Z,38.29
2022-09-02T19:04:00.370Z,38.06
2022-09-02T19:06:34.337Z,38.31
2022-09-02T19:09:12.442Z,38.73
2022-09-02T19:11:39.706Z,39.33
2022-09-02T19:14:29.429Z,39.50
2022-09-02T19:16:58.275Z,39.65
2022-09-02T19:19:27.251Z,40.53
2022-09-02T19:21:58.101Z,40.59
2022-09-02T19:24:28.411Z,41.16
2022-09-02T19:27:08.230Z,42.18
2022-09-02T19:29:38.988Z,43.04
2022-09-02T19:32:06.345Z,42.42
2022-09-02T19:34:37.872Z,42.17
2022-09-02T19:37:05.290Z,42.17
2022-09-02T19:39:35.095Z,42.67
2022-09-02T19:42:01.629Z,42.95
2022-09-02T19:44:28.646Z,43.57
2022-09-02T19:47:42.236Z,43.53
2022-09-02T19:49:42.558Z,42.84
2022-09-02T19:52:11.197Z,42.36
2022-09-02T19:54:38.808Z,42.87
2022-09-02T19:57:05.723Z,43.72
2022-09-02T19:59:33.026Z,43.49
2022-09-02T20:01:59.672Z,43.56
2022-09-02T20:04:27.858Z,43.41
2022-09-02T20:06:57.931Z,43.68
2022-09-02T20:09:25.632Z,43.41
2022-09-02T20:11:55.789Z,43.72
2022-09-02T20:14:22.370Z,43.33
2022-09-02T20:16:54.180Z,43.65
2022-09-02T20:19:21.695Z,43.23
2022-09-02T20:21:49.312Z,43.25
2022-09-02T20:24:27.045Z,43.12
2022-09-02T20:27:20.644Z,43.39
2022-09-02T20:29:58.874Z,43.93
2022-09-02T20:32:53.390Z,43.53
2022-09-02T20:35:24.032Z,43.32
2022-09-02T20:38:12.324Z,43.18
2022-09-02T20:41:25.981Z,42.91
2022-09-02T20:44:07.656Z,42.54
2022-09-02T20:46:44.271Z,42.98
2022-09-02T20:49:40.120Z,42.67
2022-09-02T20:52:21.577Z,43.64
2022-09-02T20:54:55.523Z,43.24
2022-09-02T20:57:51.750Z,43.25
2022-09-02T21:00:22.599Z,43.90
2022-09-02T21:03:05.360Z,43.45
2022-09-02T21:05:38.563Z,43.73
2022-09-02T21:08:10.076Z,44.86
2022-09-02T21:10:42.012Z,44.73
2022-09-02T21:13:34.537Z,44.72
2022-09-02T21:16:08.914Z,44.84
2022-09-02T21:18:47.435Z,44.93
2022-09-02T21:21:23.361Z,44.39
2022-09-02T21:23:56.250Z,45.13
2022-09-02T21:26:48.310Z,46.40
2022-09-02T21:29:37.121Z,46.65
2022-09-02T21:32:16.303Z,45.51
2022-09-02T21:34:52.384Z,46.15
2022-09-02T21:37:21.976Z,45.46
2022-09-02T21:39:58.287Z,44.96
2022-09-02T21:42:40.949Z,44.59
2022-09-02T21:45:11.749Z,44.50
2022-09-02T21:47:59.153Z,44.50
2022-09-02T21:50:46.267Z,44.67
2022-09-02T21:53:25.452Z,44.99
2022-09-02T21:56:16.670Z,45.04
2022-09-02T21:59:21.047Z,45.20
2022-09-02T22:02:03.764Z,45.16
2022-09-02T22:04:53.546Z,44.53
2022-09-02T22:07:28.395Z,44.73
2022-09-02T22:10:03.761Z,44.56
2022-09-02T22:12:39.770Z,44.67
2022-09-02T22:15:24.048Z,44.62
2022-09-02T22:17:56.137Z,44.67
2022-09-02T22:20:34.275Z,44.54
2022-09-02T22:23:07.050Z,44.66
2022-09-02T22:25:35.994Z,44.51
2022-09-02T22:28:09.783Z,44.37
2022-09-02T22:30:42.053Z,44.60
2022-09-02T22:33:15.978Z,44.55
2022-09-02T22:36:00.655Z,44.39
2022-09-02T22:38:35.334Z,44.10
2022-09-02T22:41:11.319Z,44.13
2022-09-02T22:43:48.992Z,44.04
2022-09-02T22:46:46.316Z,43.87
2022-09-02T22:49:48.998Z,43.98
2022-09-02T22:52:39.941Z,44.02
2022-09-02T22:55:12.701Z,43.90
2022-09-02T22:58:04.991Z,44.03
2022-09-02T23:00:39.395Z,43.90
2022-09-02T23:03:16.927Z,43.84
2022-09-02T23:06:04.645Z,43.79
2022-09-02T23:08:36.881Z,43.83
2022-09-02T23:11:11.772Z,43.67
2022-09-02T23:13:47.429Z,43.44
2022-09-02T23:16:43.038Z,43.57
2022-09-02T23:19:25.925Z,43.78
2022-09-02T23:22:17.952Z,43.76
2022-09-02T23:25:03.194Z,43.75
2022-09-02T23:28:15.329Z,43.91
2022-09-02T23:30:52.343Z,43.98
2022-09-02T23:33:43.758Z,44.05
2022-09-02T23:36:19.949Z,43.70
2022-09-02T23:39:11.952Z,43.63
2022-09-02T23:41:42.769Z,43.78
2022-09-02T23:44:12.488Z,43.66
2022-09-02T23:47:05.165Z,44.03
2022-09-02T23:50:01.404Z,44.11
2022-09-02T23:52:33.958Z,44.00
2022-09-02T23:55:23.867Z,43.95
2022-09-02T23:58:13.104Z,43.90
